Spokane, WA (99208)

6:34 AM PDT on September 22, 2014 (GMT -0700)
Country Homes | Change Station
CLOSE
Current Station
Personal Weather Station
Location: Spokane, WA
Elevation: 1986 ft
Nearby Weather Stations

Elev 1986 ft 47.73 °N, 117.43 °W | Updated 4 minutes ago

Partly Cloudy
Partly Cloudy
50.6 °F
Feels Like 50.6 °F
N
0.0
Wind Variable Wind from West
Gusts 0.0 mph

Today
High -- | Low -- °F
--% Chance of Precip.
Yesterday
High -- | Low -- °F
Precip. -- in
6:36 AM 6:47 PM
Waning Crescent, 3% visible
Pressure 29.88 in
Visibility 10.0 miles
Clouds Clear
Dew Point 46 °F
Humidity 85%
Rainfall 0.00 in
Snow Depth 0 in , 1 in , 0 in
UV 0.0 out of 12
Pollen 7.30 out of 12
PM2.5 Moderate
Flu Activity Not available.
METAR KSFF 221253Z 00000KT 10SM CLR 13/08 A2992 RMK AO2 SLP118 T01280083

More Conditions Fewer Conditions

Pressure 29.88 in
Visibility 10.0 miles
Clouds Clear
Dew Point 46 °F
Humidity 85%
Rainfall 0.00 in
Snow Depth 0 in , 1 in , 0 in
UV 0.0 out of 12
Pollen 7.30 out of 12
PM2.5 Moderate
Flu Activity Not available.
METAR KSFF 221253Z 00000KT 10SM CLR 13/08 A2992 RMK AO2 SLP118 T01280083

More Conditions Fewer Conditions

10-Day Weather Forecast

Almanac

Astronomy

Sep. 22, 2014 Rise Set
Actual Time 6:36 AM PDT 6:47 PM PDT
Civil Twilight 6:05 AM PDT 7:18 PM PDT
Nautical Twilight 5:29 AM PDT 7:54 PM PDT
Astronomical Twilight 4:51 AM PDT 8:31 PM PDT
Moon 5:05 AM PDT 5:59 PM PDT
Length of Visible Light 13h 12m
Length of Day
12h 10m
Tomorrow will be 3m 26s shorter.
Waning Crescent, 3% of the Moon is Illuminated
Today
Waning Crescent
Sep 24
New
Oct 1
First Quarter
Oct 8
Full
Oct 15
Last Quarter

Today's Extremes

State Highs State Lows

Community

WunderPhotos

Upload Photos

1,755,429 photos uploaded!

WunderBlogs® & News

Nearby

Air Quality

  Air Quality AQ Index Pollutant
Yesterday Good
PM10
Yesterday Good
OZONE
Current Moderate
PM2.5
Monday Good
PM10
Monday Good
OZONE

Snow Depth

Station Depth Elevation
Spencer Meadow 0 in 3400 ft
Quartz Peak 1 in 4700 ft
Park Creek Ridge 0 in 4600 ft
Sasse Ridge 0 in 4200 ft
Moses Mountain 1 in 5300 ft

Earthquake Activity

City Distance Mag. Time & Date
No recent earthquake activity has been reported nearby.
Minimum magnitude displayed is 2.5.

Coastal Water Temperatures

Place Temperature
No Stations Reporting

Nearby Weather Stations